sensor_id;sensor_type;location;lat;lon;timestamp;P1;durP1;ratioP1;P2;durP2;ratioP2
13868;SDS011;7004;48.206;16.402;2024-02-21T00:01:55;10.70;;;4.30;;
13868;SDS011;7004;48.206;16.402;2024-02-21T00:04:21;9.53;;;3.97;;
13868;SDS011;7004;48.206;16.402;2024-02-21T00:06:47;6.70;;;3.77;;
13868;SDS011;7004;48.206;16.402;2024-02-21T00:09:14;12.70;;;4.10;;
13868;SDS011;7004;48.206;16.402;2024-02-21T00:11:40;8.80;;;3.97;;
13868;SDS011;7004;48.206;16.402;2024-02-21T00:14:06;10.57;;;4.03;;
13868;SDS011;7004;48.206;16.402;2024-02-21T00:16:33;8.87;;;3.73;;
13868;SDS011;7004;48.206;16.402;2024-02-21T00:18:59;9.27;;;4.00;;
13868;SDS011;7004;48.206;16.402;2024-02-21T00:21:25;10.17;;;4.27;;
13868;SDS011;7004;48.206;16.402;2024-02-21T00:23:51;8.90;;;3.50;;
13868;SDS011;7004;48.206;16.402;2024-02-21T00:26:17;8.80;;;3.63;;
13868;SDS011;7004;48.206;16.402;2024-02-21T00:28:44;8.87;;;3.47;;
13868;SDS011;7004;48.206;16.402;2024-02-21T00:31:10;8.83;;;3.30;;
13868;SDS011;7004;48.206;16.402;2024-02-21T00:33:36;8.10;;;3.87;;
13868;SDS011;7004;48.206;16.402;2024-02-21T00:36:03;9.07;;;3.53;;
13868;SDS011;7004;48.206;16.402;2024-02-21T00:38:29;9.90;;;4.03;;
13868;SDS011;7004;48.206;16.402;2024-02-21T00:40:55;7.90;;;3.53;;
13868;SDS011;7004;48.206;16.402;2024-02-21T00:43:21;5.93;;;3.30;;
13868;SDS011;7004;48.206;16.402;2024-02-21T00:45:50;9.73;;;3.60;;
13868;SDS011;7004;48.206;16.402;2024-02-21T00:48:16;10.53;;;3.33;;
13868;SDS011;7004;48.206;16.402;2024-02-21T00:50:42;14.13;;;3.47;;
13868;SDS011;7004;48.206;16.402;2024-02-21T00:53:08;6.80;;;3.40;;
13868;SDS011;7004;48.206;16.402;2024-02-21T00:55:35;8.63;;;3.23;;
13868;SDS011;7004;48.206;16.402;2024-02-21T00:58:01;7.33;;;3.43;;
13868;SDS011;7004;48.206;16.402;2024-02-21T01:00:27;7.83;;;3.13;;
13868;SDS011;7004;48.206;16.402;2024-02-21T01:02:54;7.17;;;3.37;;
13868;SDS011;7004;48.206;16.402;2024-02-21T01:05:23;9.53;;;3.47;;
13868;SDS011;7004;48.206;16.402;2024-02-21T01:08:09;6.77;;;3.60;;
13868;SDS011;7004;48.206;16.402;2024-02-21T01:10:36;7.87;;;3.17;;
13868;SDS011;7004;48.206;16.402;2024-02-21T01:13:06;7.83;;;3.20;;
13868;SDS011;7004;48.206;16.402;2024-02-21T01:15:33;10.63;;;3.37;;
13868;SDS011;7004;48.206;16.402;2024-02-21T01:18:02;10.40;;;3.70;;
13868;SDS011;7004;48.206;16.402;2024-02-21T01:20:31;7.70;;;3.17;;
13868;SDS011;7004;48.206;16.402;2024-02-21T01:22:58;10.47;;;3.40;;
13868;SDS011;7004;48.206;16.402;2024-02-21T01:25:24;10.97;;;3.40;;
13868;SDS011;7004;48.206;16.402;2024-02-21T01:27:50;8.53;;;3.30;;
13868;SDS011;7004;48.206;16.402;2024-02-21T01:30:17;9.67;;;3.80;;
13868;SDS011;7004;48.206;16.402;2024-02-21T01:32:43;6.77;;;3.30;;
13868;SDS011;7004;48.206;16.402;2024-02-21T01:35:09;10.83;;;3.60;;
13868;SDS011;7004;48.206;16.402;2024-02-21T01:37:36;11.47;;;3.70;;
13868;SDS011;7004;48.206;16.402;2024-02-21T01:40:02;7.33;;;3.00;;
13868;SDS011;7004;48.206;16.402;2024-02-21T01:42:31;7.97;;;3.57;;
13868;SDS011;7004;48.206;16.402;2024-02-21T01:44:57;8.70;;;3.13;;
13868;SDS011;7004;48.206;16.402;2024-02-21T01:47:24;10.57;;;3.53;;
13868;SDS011;7004;48.206;16.402;2024-02-21T01:49:50;8.10;;;3.83;;
13868;SDS011;7004;48.206;16.402;2024-02-21T01:52:16;7.73;;;3.57;;
13868;SDS011;7004;48.206;16.402;2024-02-21T01:54:44;11.00;;;3.53;;
13868;SDS011;7004;48.206;16.402;2024-02-21T01:57:12;8.20;;;3.17;;
13868;SDS011;7004;48.206;16.402;2024-02-21T01:59:38;8.17;;;3.27;;
13868;SDS011;7004;48.206;16.402;2024-02-21T02:02:04;9.27;;;3.57;;
13868;SDS011;7004;48.206;16.402;2024-02-21T02:04:30;10.57;;;3.63;;
13868;SDS011;7004;48.206;16.402;2024-02-21T02:06:57;7.07;;;3.03;;
13868;SDS011;7004;48.206;16.402;2024-02-21T02:09:27;7.23;;;3.30;;
13868;SDS011;7004;48.206;16.402;2024-02-21T02:11:54;9.67;;;3.73;;
13868;SDS011;7004;48.206;16.402;2024-02-21T02:14:20;9.13;;;3.60;;
13868;SDS011;7004;48.206;16.402;2024-02-21T02:16:47;13.17;;;3.57;;
13868;SDS011;7004;48.206;16.402;2024-02-21T02:19:13;13.00;;;3.60;;
13868;SDS011;7004;48.206;16.402;2024-02-21T02:21:42;13.07;;;3.63;;
13868;SDS011;7004;48.206;16.402;2024-02-21T02:24:21;12.93;;;3.80;;
13868;SDS011;7004;48.206;16.402;2024-02-21T02:26:50;9.00;;;3.50;;
13868;SDS011;7004;48.206;16.402;2024-02-21T02:29:16;12.10;;;3.70;;
13868;SDS011;7004;48.206;16.402;2024-02-21T02:31:43;9.83;;;3.40;;
13868;SDS011;7004;48.206;16.402;2024-02-21T02:34:09;10.60;;;3.40;;
13868;SDS011;7004;48.206;16.402;2024-02-21T02:36:35;9.13;;;3.70;;
13868;SDS011;7004;48.206;16.402;2024-02-21T02:39:01;7.17;;;3.30;;
13868;SDS011;7004;48.206;16.402;2024-02-21T02:41:27;8.83;;;3.63;;
13868;SDS011;7004;48.206;16.402;2024-02-21T02:43:53;9.57;;;3.00;;
13868;SDS011;7004;48.206;16.402;2024-02-21T02:46:19;7.90;;;3.70;;
13868;SDS011;7004;48.206;16.402;2024-02-21T02:48:45;9.77;;;3.67;;
13868;SDS011;7004;48.206;16.402;2024-02-21T02:51:11;9.07;;;3.63;;
13868;SDS011;7004;48.206;16.402;2024-02-21T02:53:37;8.03;;;3.70;;
13868;SDS011;7004;48.206;16.402;2024-02-21T02:56:04;4.90;;;2.97;;
13868;SDS011;7004;48.206;16.402;2024-02-21T02:58:31;7.10;;;3.13;;
13868;SDS011;7004;48.206;16.402;2024-02-21T03:00:57;9.40;;;3.23;;
13868;SDS011;7004;48.206;16.402;2024-02-21T03:03:23;10.20;;;3.53;;
13868;SDS011;7004;48.206;16.402;2024-02-21T03:05:49;11.27;;;3.97;;
13868;SDS011;7004;48.206;16.402;2024-02-21T03:08:15;6.73;;;3.00;;
13868;SDS011;7004;48.206;16.402;2024-02-21T03:10:42;8.13;;;3.17;;
13868;SDS011;7004;48.206;16.402;2024-02-21T03:13:10;12.63;;;3.40;;
13868;SDS011;7004;48.206;16.402;2024-02-21T03:15:37;7.10;;;3.30;;
13868;SDS011;7004;48.206;16.402;2024-02-21T03:18:04;13.37;;;3.70;;
13868;SDS011;7004;48.206;16.402;2024-02-21T03:20:30;6.13;;;3.03;;
13868;SDS011;7004;48.206;16.402;2024-02-21T03:22:58;7.50;;;3.23;;
13868;SDS011;7004;48.206;16.402;2024-02-21T03:25:26;12.93;;;4.20;;
13868;SDS011;7004;48.206;16.402;2024-02-21T03:27:55;12.53;;;3.50;;
13868;SDS011;7004;48.206;16.402;2024-02-21T03:30:22;11.60;;;3.60;;
13868;SDS011;7004;48.206;16.402;2024-02-21T03:32:55;12.70;;;4.23;;
13868;SDS011;7004;48.206;16.402;2024-02-21T03:35:21;13.83;;;3.63;;
13868;SDS011;7004;48.206;16.402;2024-02-21T03:37:51;9.30;;;3.30;;
13868;SDS011;7004;48.206;16.402;2024-02-21T03:40:18;10.60;;;3.23;;
13868;SDS011;7004;48.206;16.402;2024-02-21T03:42:45;10.20;;;3.50;;
13868;SDS011;7004;48.206;16.402;2024-02-21T03:45:12;7.67;;;3.30;;
13868;SDS011;7004;48.206;16.402;2024-02-21T03:47:41;10.60;;;3.30;;
13868;SDS011;7004;48.206;16.402;2024-02-21T03:50:07;9.13;;;3.60;;
13868;SDS011;7004;48.206;16.402;2024-02-21T03:52:34;10.13;;;3.50;;
13868;SDS011;7004;48.206;16.402;2024-02-21T03:55:00;7.53;;;3.53;;
13868;SDS011;7004;48.206;16.402;2024-02-21T03:57:26;9.23;;;3.50;;
13868;SDS011;7004;48.206;16.402;2024-02-21T03:59:52;8.90;;;3.77;;
13868;SDS011;7004;48.206;16.402;2024-02-21T04:02:18;8.87;;;3.60;;
13868;SDS011;7004;48.206;16.402;2024-02-21T04:04:45;11.50;;;3.60;;
13868;SDS011;7004;48.206;16.402;2024-02-21T04:07:15;11.23;;;3.50;;
13868;SDS011;7004;48.206;16.402;2024-02-21T04:09:41;9.63;;;3.60;;
13868;SDS011;7004;48.206;16.402;2024-02-21T04:12:08;8.17;;;3.23;;
13868;SDS011;7004;48.206;16.402;2024-02-21T04:14:35;12.97;;;3.97;;
13868;SDS011;7004;48.206;16.402;2024-02-21T04:17:01;8.07;;;3.27;;
13868;SDS011;7004;48.206;16.402;2024-02-21T04:19:28;9.07;;;3.57;;
13868;SDS011;7004;48.206;16.402;2024-02-21T04:21:54;7.43;;;3.10;;
13868;SDS011;7004;48.206;16.402;2024-02-21T04:24:20;8.67;;;3.57;;
13868;SDS011;7004;48.206;16.402;2024-02-21T04:26:46;10.57;;;3.70;;
13868;SDS011;7004;48.206;16.402;2024-02-21T04:29:12;10.03;;;3.03;;
13868;SDS011;7004;48.206;16.402;2024-02-21T04:31:38;9.77;;;3.57;;
13868;SDS011;7004;48.206;16.402;2024-02-21T04:34:06;13.73;;;3.93;;
13868;SDS011;7004;48.206;16.402;2024-02-21T04:36:32;9.30;;;3.70;;
13868;SDS011;7004;48.206;16.402;2024-02-21T04:38:58;13.03;;;3.93;;
13868;SDS011;7004;48.206;16.402;2024-02-21T04:41:24;5.10;;;3.00;;
13868;SDS011;7004;48.206;16.402;2024-02-21T04:43:50;9.53;;;3.70;;
13868;SDS011;7004;48.206;16.402;2024-02-21T04:46:16;7.00;;;3.33;;
13868;SDS011;7004;48.206;16.402;2024-02-21T04:48:42;7.00;;;3.27;;
13868;SDS011;7004;48.206;16.402;2024-02-21T04:51:09;8.37;;;3.43;;
13868;SDS011;7004;48.206;16.402;2024-02-21T04:53:38;8.20;;;3.27;;
13868;SDS011;7004;48.206;16.402;2024-02-21T04:56:04;9.47;;;3.30;;
13868;SDS011;7004;48.206;16.402;2024-02-21T04:58:31;7.90;;;3.67;;
13868;SDS011;7004;48.206;16.402;2024-02-21T05:00:57;8.03;;;3.47;;
13868;SDS011;7004;48.206;16.402;2024-02-21T05:03:23;10.03;;;3.50;;
13868;SDS011;7004;48.206;16.402;2024-02-21T05:05:49;12.03;;;4.20;;
13868;SDS011;7004;48.206;16.402;2024-02-21T05:08:16;12.50;;;3.90;;
13868;SDS011;7004;48.206;16.402;2024-02-21T05:10:42;7.93;;;3.67;;
13868;SDS011;7004;48.206;16.402;2024-02-21T05:13:08;7.83;;;3.47;;
13868;SDS011;7004;48.206;16.402;2024-02-21T05:15:34;11.00;;;3.50;;
13868;SDS011;7004;48.206;16.402;2024-02-21T05:18:00;10.13;;;3.70;;
13868;SDS011;7004;48.206;16.402;2024-02-21T05:20:27;10.50;;;4.13;;
13868;SDS011;7004;48.206;16.402;2024-02-21T05:22:53;9.10;;;3.57;;
13868;SDS011;7004;48.206;16.402;2024-02-21T05:25:19;8.93;;;3.07;;
13868;SDS011;7004;48.206;16.402;2024-02-21T05:27:45;9.13;;;3.47;;
13868;SDS011;7004;48.206;16.402;2024-02-21T05:30:12;6.13;;;3.47;;
13868;SDS011;7004;48.206;16.402;2024-02-21T05:32:38;10.77;;;3.20;;
13868;SDS011;7004;48.206;16.402;2024-02-21T05:35:04;10.87;;;5.07;;
13868;SDS011;7004;48.206;16.402;2024-02-21T05:37:31;7.67;;;3.43;;
13868;SDS011;7004;48.206;16.402;2024-02-21T05:39:57;9.37;;;3.20;;
13868;SDS011;7004;48.206;16.402;2024-02-21T05:42:23;7.73;;;3.30;;
13868;SDS011;7004;48.206;16.402;2024-02-21T05:44:49;7.00;;;2.80;;
13868;SDS011;7004;48.206;16.402;2024-02-21T05:47:15;6.77;;;2.77;;
13868;SDS011;7004;48.206;16.402;2024-02-21T05:49:41;7.80;;;3.13;;
13868;SDS011;7004;48.206;16.402;2024-02-21T05:52:07;8.63;;;3.57;;
13868;SDS011;7004;48.206;16.402;2024-02-21T05:54:33;7.57;;;2.97;;
13868;SDS011;7004;48.206;16.402;2024-02-21T05:57:02;7.40;;;2.90;;
13868;SDS011;7004;48.206;16.402;2024-02-21T05:59:28;4.17;;;2.63;;
13868;SDS011;7004;48.206;16.402;2024-02-21T06:01:56;5.37;;;2.90;;
13868;SDS011;7004;48.206;16.402;2024-02-21T06:04:23;7.87;;;3.00;;
13868;SDS011;7004;48.206;16.402;2024-02-21T06:06:49;9.53;;;3.17;;
13868;SDS011;7004;48.206;16.402;2024-02-21T06:09:15;7.83;;;3.13;;
13868;SDS011;7004;48.206;16.402;2024-02-21T06:11:41;7.40;;;2.83;;
13868;SDS011;7004;48.206;16.402;2024-02-21T06:14:07;6.27;;;2.90;;
13868;SDS011;7004;48.206;16.402;2024-02-21T06:16:33;7.33;;;2.73;;
13868;SDS011;7004;48.206;16.402;2024-02-21T06:18:59;11.03;;;4.20;;
13868;SDS011;7004;48.206;16.402;2024-02-21T06:21:28;11.40;;;3.47;;
13868;SDS011;7004;48.206;16.402;2024-02-21T06:23:55;7.13;;;2.83;;
13868;SDS011;7004;48.206;16.402;2024-02-21T06:26:21;6.43;;;2.77;;
13868;SDS011;7004;48.206;16.402;2024-02-21T06:28:47;8.43;;;2.90;;
13868;SDS011;7004;48.206;16.402;2024-02-21T06:31:13;6.43;;;2.43;;
13868;SDS011;7004;48.206;16.402;2024-02-21T06:33:40;6.87;;;2.80;;
13868;SDS011;7004;48.206;16.402;2024-02-21T06:36:06;8.53;;;2.97;;
13868;SDS011;7004;48.206;16.402;2024-02-21T06:38:33;6.87;;;2.80;;
13868;SDS011;7004;48.206;16.402;2024-02-21T06:40:59;6.40;;;3.20;;
13868;SDS011;7004;48.206;16.402;2024-02-21T06:43:27;6.93;;;2.87;;
13868;SDS011;7004;48.206;16.402;2024-02-21T06:45:54;7.60;;;2.70;;
13868;SDS011;7004;48.206;16.402;2024-02-21T06:48:22;8.73;;;2.63;;
13868;SDS011;7004;48.206;16.402;2024-02-21T06:50:48;5.00;;;2.53;;
13868;SDS011;7004;48.206;16.402;2024-02-21T06:53:14;8.23;;;2.93;;
13868;SDS011;7004;48.206;16.402;2024-02-21T06:55:41;9.87;;;3.67;;
13868;SDS011;7004;48.206;16.402;2024-02-21T06:58:07;7.97;;;2.67;;
13868;SDS011;7004;48.206;16.402;2024-02-21T07:00:37;10.23;;;2.90;;
13868;SDS011;7004;48.206;16.402;2024-02-21T07:03:04;8.73;;;2.60;;
13868;SDS011;7004;48.206;16.402;2024-02-21T07:05:30;9.17;;;2.93;;
13868;SDS011;7004;48.206;16.402;2024-02-21T07:07:56;6.63;;;2.50;;
13868;SDS011;7004;48.206;16.402;2024-02-21T07:10:22;6.27;;;2.73;;
13868;SDS011;7004;48.206;16.402;2024-02-21T07:12:48;5.93;;;2.80;;
13868;SDS011;7004;48.206;16.402;2024-02-21T07:15:17;7.40;;;2.87;;
13868;SDS011;7004;48.206;16.402;2024-02-21T07:17:43;6.07;;;2.83;;
13868;SDS011;7004;48.206;16.402;2024-02-21T07:20:09;7.77;;;3.13;;
13868;SDS011;7004;48.206;16.402;2024-02-21T07:22:37;8.40;;;2.77;;
13868;SDS011;7004;48.206;16.402;2024-02-21T07:25:03;5.60;;;2.90;;
13868;SDS011;7004;48.206;16.402;2024-02-21T07:27:30;8.10;;;2.80;;
13868;SDS011;7004;48.206;16.402;2024-02-21T07:29:58;5.87;;;2.50;;
13868;SDS011;7004;48.206;16.402;2024-02-21T07:32:25;7.30;;;2.60;;
13868;SDS011;7004;48.206;16.402;2024-02-21T07:34:51;6.63;;;2.40;;
13868;SDS011;7004;48.206;16.402;2024-02-21T07:37:17;6.10;;;2.50;;
13868;SDS011;7004;48.206;16.402;2024-02-21T07:39:43;9.20;;;2.77;;
13868;SDS011;7004;48.206;16.402;2024-02-21T07:42:09;5.47;;;2.70;;
13868;SDS011;7004;48.206;16.402;2024-02-21T07:44:35;8.13;;;2.60;;
13868;SDS011;7004;48.206;16.402;2024-02-21T07:47:01;3.70;;;2.40;;
13868;SDS011;7004;48.206;16.402;2024-02-21T07:49:28;8.90;;;3.30;;
13868;SDS011;7004;48.206;16.402;2024-02-21T07:51:54;5.37;;;2.47;;
13868;SDS011;7004;48.206;16.402;2024-02-21T07:54:38;9.80;;;2.67;;
13868;SDS011;7004;48.206;16.402;2024-02-21T07:57:23;5.40;;;2.37;;
13868;SDS011;7004;48.206;16.402;2024-02-21T07:59:49;8.17;;;2.60;;
13868;SDS011;7004;48.206;16.402;2024-02-21T08:02:15;8.07;;;2.80;;
13868;SDS011;7004;48.206;16.402;2024-02-21T08:04:41;6.80;;;2.40;;
13868;SDS011;7004;48.206;16.402;2024-02-21T08:07:07;5.63;;;2.40;;
13868;SDS011;7004;48.206;16.402;2024-02-21T08:09:34;6.20;;;2.30;;
13868;SDS011;7004;48.206;16.402;2024-02-21T08:12:03;7.93;;;3.00;;
13868;SDS011;7004;48.206;16.402;2024-02-21T08:14:30;7.00;;;2.93;;
13868;SDS011;7004;48.206;16.402;2024-02-21T08:16:56;5.07;;;2.30;;
13868;SDS011;7004;48.206;16.402;2024-02-21T08:19:22;4.67;;;2.20;;
13868;SDS011;7004;48.206;16.402;2024-02-21T08:21:49;6.57;;;2.60;;
13868;SDS011;7004;48.206;16.402;2024-02-21T08:24:15;4.07;;;2.20;;
13868;SDS011;7004;48.206;16.402;2024-02-21T08:26:41;4.83;;;2.37;;
13868;SDS011;7004;48.206;16.402;2024-02-21T08:29:10;5.27;;;2.40;;
13868;SDS011;7004;48.206;16.402;2024-02-21T08:31:37;5.40;;;2.07;;
13868;SDS011;7004;48.206;16.402;2024-02-21T08:34:04;6.40;;;2.30;;
13868;SDS011;7004;48.206;16.402;2024-02-21T08:36:30;5.30;;;2.50;;
13868;SDS011;7004;48.206;16.402;2024-02-21T08:38:58;8.30;;;2.10;;
13868;SDS011;7004;48.206;16.402;2024-02-21T08:41:24;7.80;;;2.53;;
13868;SDS011;7004;48.206;16.402;2024-02-21T08:43:51;7.00;;;2.43;;
13868;SDS011;7004;48.206;16.402;2024-02-21T08:46:19;6.07;;;2.63;;
13868;SDS011;7004;48.206;16.402;2024-02-21T08:48:46;4.50;;;1.97;;
13868;SDS011;7004;48.206;16.402;2024-02-21T08:51:12;7.17;;;2.50;;
13868;SDS011;7004;48.206;16.402;2024-02-21T08:53:39;9.70;;;2.37;;
13868;SDS011;7004;48.206;16.402;2024-02-21T08:56:05;4.60;;;2.30;;
13868;SDS011;7004;48.206;16.402;2024-02-21T08:58:39;9.50;;;2.17;;
13868;SDS011;7004;48.206;16.402;2024-02-21T09:01:06;5.83;;;2.50;;
13868;SDS011;7004;48.206;16.402;2024-02-21T09:03:36;6.37;;;1.87;;
13868;SDS011;7004;48.206;16.402;2024-02-21T09:06:04;5.27;;;2.20;;
13868;SDS011;7004;48.206;16.402;2024-02-21T09:08:31;6.80;;;2.53;;
13868;SDS011;7004;48.206;16.402;2024-02-21T09:10:59;6.70;;;2.40;;
13868;SDS011;7004;48.206;16.402;2024-02-21T09:13:26;4.27;;;1.97;;
13868;SDS011;7004;48.206;16.402;2024-02-21T09:15:53;3.03;;;2.00;;
13868;SDS011;7004;48.206;16.402;2024-02-21T09:18:19;5.63;;;2.40;;
13868;SDS011;7004;48.206;16.402;2024-02-21T09:20:45;7.40;;;2.70;;
13868;SDS011;7004;48.206;16.402;2024-02-21T09:23:12;6.73;;;2.50;;
13868;SDS011;7004;48.206;16.402;2024-02-21T09:25:38;4.57;;;2.40;;
13868;SDS011;7004;48.206;16.402;2024-02-21T09:28:05;6.70;;;2.50;;
13868;SDS011;7004;48.206;16.402;2024-02-21T09:30:31;7.40;;;2.73;;
13868;SDS011;7004;48.206;16.402;2024-02-21T09:32:58;4.53;;;2.23;;
13868;SDS011;7004;48.206;16.402;2024-02-21T09:35:25;7.27;;;2.13;;
13868;SDS011;7004;48.206;16.402;2024-02-21T09:37:53;8.67;;;2.10;;
13868;SDS011;7004;48.206;16.402;2024-02-21T09:40:20;4.27;;;2.47;;
13868;SDS011;7004;48.206;16.402;2024-02-21T09:42:46;5.27;;;2.50;;
13868;SDS011;7004;48.206;16.402;2024-02-21T09:48:02;7.80;;;3.13;;
13868;SDS011;7004;48.206;16.402;2024-02-21T09:50:57;6.50;;;2.43;;
13868;SDS011;7004;48.206;16.402;2024-02-21T09:53:24;7.00;;;2.47;;
13868;SDS011;7004;48.206;16.402;2024-02-21T09:55:51;7.70;;;2.20;;
13868;SDS011;7004;48.206;16.402;2024-02-21T09:58:18;5.53;;;2.43;;
13868;SDS011;7004;48.206;16.402;2024-02-21T10:00:44;8.23;;;2.17;;
13868;SDS011;7004;48.206;16.402;2024-02-21T10:03:12;8.70;;;2.80;;
13868;SDS011;7004;48.206;16.402;2024-02-21T10:05:39;5.93;;;2.20;;
13868;SDS011;7004;48.206;16.402;2024-02-21T10:08:15;6.67;;;2.30;;
13868;SDS011;7004;48.206;16.402;2024-02-21T10:10:42;6.13;;;2.30;;
13868;SDS011;7004;48.206;16.402;2024-02-21T10:13:23;7.20;;;2.13;;
13868;SDS011;7004;48.206;16.402;2024-02-21T10:16:02;6.90;;;2.30;;
13868;SDS011;7004;48.206;16.402;2024-02-21T10:18:33;7.97;;;2.80;;
13868;SDS011;7004;48.206;16.402;2024-02-21T10:21:06;6.03;;;2.57;;
13868;SDS011;7004;48.206;16.402;2024-02-21T10:23:49;7.07;;;2.57;;
13868;SDS011;7004;48.206;16.402;2024-02-21T10:26:17;6.13;;;2.10;;
13868;SDS011;7004;48.206;16.402;2024-02-21T10:28:44;7.03;;;2.33;;
13868;SDS011;7004;48.206;16.402;2024-02-21T10:31:25;4.77;;;2.53;;
13868;SDS011;7004;48.206;16.402;2024-02-21T10:34:02;6.93;;;2.77;;
13868;SDS011;7004;48.206;16.402;2024-02-21T10:36:28;7.90;;;2.57;;
13868;SDS011;7004;48.206;16.402;2024-02-21T10:38:55;7.67;;;2.30;;
13868;SDS011;7004;48.206;16.402;2024-02-21T10:41:21;7.43;;;2.67;;
13868;SDS011;7004;48.206;16.402;2024-02-21T10:43:50;8.20;;;2.77;;
13868;SDS011;7004;48.206;16.402;2024-02-21T10:46:20;6.57;;;2.53;;
13868;SDS011;7004;48.206;16.402;2024-02-21T10:48:54;4.63;;;2.43;;
13868;SDS011;7004;48.206;16.402;2024-02-21T10:51:35;6.70;;;2.43;;
13868;SDS011;7004;48.206;16.402;2024-02-21T10:57:07;6.83;;;2.47;;
13868;SDS011;7004;48.206;16.402;2024-02-21T10:59:36;5.13;;;2.67;;
13868;SDS011;7004;48.206;16.402;2024-02-21T11:02:07;6.97;;;2.60;;
13868;SDS011;7004;48.206;16.402;2024-02-21T11:04:33;6.67;;;2.37;;
13868;SDS011;7004;48.206;16.402;2024-02-21T11:07:04;8.93;;;2.43;;
13868;SDS011;7004;48.206;16.402;2024-02-21T11:09:31;10.07;;;2.53;;
13868;SDS011;7004;48.206;16.402;2024-02-21T11:12:01;6.17;;;2.63;;
13868;SDS011;7004;48.206;16.402;2024-02-21T11:14:29;6.70;;;2.37;;
13868;SDS011;7004;48.206;16.402;2024-02-21T11:17:01;7.33;;;2.50;;
13868;SDS011;7004;48.206;16.402;2024-02-21T11:19:29;7.23;;;2.80;;
13868;SDS011;7004;48.206;16.402;2024-02-21T11:21:56;8.50;;;2.00;;
13868;SDS011;7004;48.206;16.402;2024-02-21T11:26:54;5.37;;;2.40;;
13868;SDS011;7004;48.206;16.402;2024-02-21T11:29:24;7.10;;;2.60;;
13868;SDS011;7004;48.206;16.402;2024-02-21T11:31:52;8.53;;;2.53;;
13868;SDS011;7004;48.206;16.402;2024-02-21T11:34:19;4.57;;;2.30;;
13868;SDS011;7004;48.206;16.402;2024-02-21T11:36:49;11.17;;;2.90;;
13868;SDS011;7004;48.206;16.402;2024-02-21T11:39:25;5.93;;;2.40;;
13868;SDS011;7004;48.206;16.402;2024-02-21T11:42:01;8.47;;;2.50;;
13868;SDS011;7004;48.206;16.402;2024-02-21T11:44:34;9.20;;;2.43;;
13868;SDS011;7004;48.206;16.402;2024-02-21T11:47:03;8.07;;;2.50;;
13868;SDS011;7004;48.206;16.402;2024-02-21T11:49:30;6.60;;;2.50;;
13868;SDS011;7004;48.206;16.402;2024-02-21T11:52:03;6.17;;;2.50;;
13868;SDS011;7004;48.206;16.402;2024-02-21T11:54:30;6.00;;;2.03;;
13868;SDS011;7004;48.206;16.402;2024-02-21T11:56:56;6.70;;;2.23;;
13868;SDS011;7004;48.206;16.402;2024-02-21T11:59:22;5.40;;;2.30;;
13868;SDS011;7004;48.206;16.402;2024-02-21T12:01:48;4.30;;;2.00;;
13868;SDS011;7004;48.206;16.402;2024-02-21T12:04:17;7.57;;;2.60;;
13868;SDS011;7004;48.206;16.402;2024-02-21T12:06:47;8.73;;;2.67;;
13868;SDS011;7004;48.206;16.402;2024-02-21T12:09:13;7.17;;;2.43;;
13868;SDS011;7004;48.206;16.402;2024-02-21T12:11:42;5.53;;;2.30;;
13868;SDS011;7004;48.206;16.402;2024-02-21T12:14:09;8.37;;;2.10;;
13868;SDS011;7004;48.206;16.402;2024-02-21T12:16:36;5.30;;;2.60;;
13868;SDS011;7004;48.206;16.402;2024-02-21T12:19:02;6.00;;;2.13;;
13868;SDS011;7004;48.206;16.402;2024-02-21T12:21:30;6.70;;;2.23;;
13868;SDS011;7004;48.206;16.402;2024-02-21T12:24:10;6.67;;;2.40;;
13868;SDS011;7004;48.206;16.402;2024-02-21T12:26:41;4.87;;;2.10;;
13868;SDS011;7004;48.206;16.402;2024-02-21T12:29:07;7.07;;;2.30;;
13868;SDS011;7004;48.206;16.402;2024-02-21T12:31:40;5.07;;;2.17;;
13868;SDS011;7004;48.206;16.402;2024-02-21T12:34:06;6.27;;;2.10;;
13868;SDS011;7004;48.206;16.402;2024-02-21T12:36:36;10.57;;;3.00;;
13868;SDS011;7004;48.206;16.402;2024-02-21T12:39:10;9.97;;;2.20;;
13868;SDS011;7004;48.206;16.402;2024-02-21T12:41:37;6.93;;;2.30;;
13868;SDS011;7004;48.206;16.402;2024-02-21T12:44:04;6.47;;;2.20;;
13868;SDS011;7004;48.206;16.402;2024-02-21T12:46:34;4.87;;;2.00;;
13868;SDS011;7004;48.206;16.402;2024-02-21T12:49:01;9.47;;;2.33;;
13868;SDS011;7004;48.206;16.402;2024-02-21T12:51:29;6.23;;;2.20;;
13868;SDS011;7004;48.206;16.402;2024-02-21T12:53:58;6.70;;;2.00;;
13868;SDS011;7004;48.206;16.402;2024-02-21T12:56:25;6.93;;;2.10;;
13868;SDS011;7004;48.206;16.402;2024-02-21T12:59:00;8.63;;;2.73;;
13868;SDS011;7004;48.206;16.402;2024-02-21T13:01:26;8.53;;;2.33;;
13868;SDS011;7004;48.206;16.402;2024-02-21T13:03:53;4.77;;;2.13;;
13868;SDS011;7004;48.206;16.402;2024-02-21T13:06:21;5.10;;;2.27;;
13868;SDS011;7004;48.206;16.402;2024-02-21T13:08:47;5.83;;;2.57;;
13868;SDS011;7004;48.206;16.402;2024-02-21T13:11:13;5.53;;;2.23;;
13868;SDS011;7004;48.206;16.402;2024-02-21T13:13:39;5.53;;;2.00;;
13868;SDS011;7004;48.206;16.402;2024-02-21T13:16:05;5.93;;;2.40;;
13868;SDS011;7004;48.206;16.402;2024-02-21T13:18:32;5.73;;;1.93;;
13868;SDS011;7004;48.206;16.402;2024-02-21T13:21:00;7.90;;;2.30;;
13868;SDS011;7004;48.206;16.402;2024-02-21T13:23:26;5.57;;;2.20;;
13868;SDS011;7004;48.206;16.402;2024-02-21T13:25:52;7.07;;;2.23;;
13868;SDS011;7004;48.206;16.402;2024-02-21T13:28:18;3.77;;;1.90;;
13868;SDS011;7004;48.206;16.402;2024-02-21T13:30:44;6.10;;;2.20;;
13868;SDS011;7004;48.206;16.402;2024-02-21T13:33:12;8.70;;;3.13;;
13868;SDS011;7004;48.206;16.402;2024-02-21T13:35:39;5.37;;;1.93;;
13868;SDS011;7004;48.206;16.402;2024-02-21T13:38:05;4.70;;;2.47;;
13868;SDS011;7004;48.206;16.402;2024-02-21T13:40:32;8.17;;;2.30;;
13868;SDS011;7004;48.206;16.402;2024-02-21T13:42:58;8.30;;;2.10;;
13868;SDS011;7004;48.206;16.402;2024-02-21T13:45:24;8.20;;;2.50;;
13868;SDS011;7004;48.206;16.402;2024-02-21T13:47:51;4.90;;;2.10;;
13868;SDS011;7004;48.206;16.402;2024-02-21T13:50:17;6.03;;;2.50;;
13868;SDS011;7004;48.206;16.402;2024-02-21T13:52:45;6.17;;;2.00;;
13868;SDS011;7004;48.206;16.402;2024-02-21T13:55:11;6.67;;;2.27;;
13868;SDS011;7004;48.206;16.402;2024-02-21T13:57:38;3.90;;;1.90;;
13868;SDS011;7004;48.206;16.402;2024-02-21T14:00:04;3.83;;;2.17;;
13868;SDS011;7004;48.206;16.402;2024-02-21T14:02:31;6.70;;;2.30;;
13868;SDS011;7004;48.206;16.402;2024-02-21T14:04:57;5.93;;;2.10;;
13868;SDS011;7004;48.206;16.402;2024-02-21T14:07:24;3.17;;;1.80;;
13868;SDS011;7004;48.206;16.402;2024-02-21T14:09:50;3.20;;;2.03;;
13868;SDS011;7004;48.206;16.402;2024-02-21T14:12:16;6.17;;;2.10;;
13868;SDS011;7004;48.206;16.402;2024-02-21T14:14:45;7.20;;;3.30;;
13868;SDS011;7004;48.206;16.402;2024-02-21T14:17:11;6.67;;;1.90;;
13868;SDS011;7004;48.206;16.402;2024-02-21T14:19:41;5.03;;;2.07;;
13868;SDS011;7004;48.206;16.402;2024-02-21T14:22:07;5.33;;;2.27;;
13868;SDS011;7004;48.206;16.402;2024-02-21T14:24:33;5.30;;;2.00;;
13868;SDS011;7004;48.206;16.402;2024-02-21T14:26:59;6.40;;;2.10;;
13868;SDS011;7004;48.206;16.402;2024-02-21T14:29:25;6.37;;;2.37;;
13868;SDS011;7004;48.206;16.402;2024-02-21T14:31:51;4.57;;;2.10;;
13868;SDS011;7004;48.206;16.402;2024-02-21T14:34:17;4.20;;;2.40;;
13868;SDS011;7004;48.206;16.402;2024-02-21T14:36:44;6.43;;;2.07;;
13868;SDS011;7004;48.206;16.402;2024-02-21T14:39:10;6.63;;;2.27;;
13868;SDS011;7004;48.206;16.402;2024-02-21T14:41:36;4.70;;;2.00;;
13868;SDS011;7004;48.206;16.402;2024-02-21T14:44:03;6.03;;;2.30;;
13868;SDS011;7004;48.206;16.402;2024-02-21T14:46:29;6.40;;;2.27;;
13868;SDS011;7004;48.206;16.402;2024-02-21T14:48:55;5.90;;;2.30;;
13868;SDS011;7004;48.206;16.402;2024-02-21T14:51:21;6.77;;;2.80;;
13868;SDS011;7004;48.206;16.402;2024-02-21T14:53:48;13.97;;;5.30;;
13868;SDS011;7004;48.206;16.402;2024-02-21T14:56:14;7.93;;;3.43;;